createdAt,value
2018-12-27T00:00:18.645Z,13.67
2018-12-27T00:02:46.306Z,11.03
2018-12-27T00:05:13.943Z,10.23
2018-12-27T00:07:41.919Z,10.80
2018-12-27T00:10:10.200Z,10.70
2018-12-27T00:12:38.801Z,13.00
2018-12-27T00:15:07.365Z,10.00
2018-12-27T00:17:54.142Z,11.77
2018-12-27T00:20:22.457Z,11.77
2018-12-27T00:22:50.827Z,12.87
2018-12-27T00:28:06.441Z,10.70
2018-12-27T00:30:34.997Z,9.50
2018-12-27T00:33:22.154Z,10.20
2018-12-27T00:35:50.081Z,11.43
2018-12-27T00:38:18.004Z,10.90
2018-12-27T00:40:45.675Z,14.30
2018-12-27T00:43:13.898Z,9.70
2018-12-27T00:45:42.229Z,9.83
2018-12-27T00:48:09.906Z,10.70
2018-12-27T00:50:37.893Z,9.50
2018-12-27T00:53:06.295Z,10.00
2018-12-27T00:55:53.436Z,13.13
2018-12-27T00:58:21.696Z,10.13
2018-12-27T01:00:49.893Z,10.90
2018-12-27T01:03:17.942Z,10.10
2018-12-27T01:05:46.306Z,9.83
2018-12-27T01:08:33.073Z,10.37
2018-12-27T01:11:01.394Z,9.53
2018-12-27T01:13:29.574Z,9.57
2018-12-27T01:18:45.440Z,14.23
2018-12-27T01:21:13.858Z,10.30
2018-12-27T01:23:42.062Z,9.60
2018-12-27T01:26:10.325Z,9.93
2018-12-27T01:28:37.989Z,11.13
2018-12-27T01:31:05.667Z,9.90
2018-12-27T01:33:33.900Z,11.53
2018-12-27T01:36:01.552Z,10.23
2018-12-27T01:41:16.634Z,10.27
2018-12-27T01:43:45.028Z,12.93
2018-12-27T01:46:13.006Z,11.13
2018-12-27T01:48:41.387Z,11.53
2018-12-27T01:51:09.413Z,11.10
2018-12-27T01:53:37.735Z,9.23
2018-12-27T01:56:06.013Z,9.47
2018-12-27T01:58:34.385Z,9.23
2018-12-27T02:01:02.654Z,10.07
2018-12-27T02:03:49.422Z,11.03
2018-12-27T02:06:17.362Z,9.77
2018-12-27T02:08:45.917Z,9.77
2018-12-27T02:11:13.687Z,9.00
2018-12-27T02:13:41.925Z,10.17
2018-12-27T02:16:10.237Z,9.10
2018-12-27T02:18:38.270Z,9.03
2018-12-27T02:21:06.278Z,8.60
2018-12-27T02:23:34.241Z,9.63
2018-12-27T02:26:02.257Z,10.83
2018-12-27T02:28:30.209Z,10.30
2018-12-27T02:30:58.471Z,11.47
2018-12-27T02:33:34.964Z,9.80
2018-12-27T02:35:56.550Z,10.13
2018-12-27T02:38:25.133Z,10.60
2018-12-27T02:40:53.101Z,10.40
2018-12-27T02:46:19.115Z,9.60
2018-12-27T02:48:47.117Z,9.40
2018-12-27T02:51:15.101Z,7.77
2018-12-27T02:53:42.759Z,9.27
2018-12-27T02:56:10.685Z,11.00
2018-12-27T02:58:38.329Z,9.80
2018-12-27T03:17:04.417Z,12.13
2018-12-27T03:19:32.440Z,11.70
2018-12-27T03:22:00.414Z,13.57
2018-12-27T03:24:28.361Z,13.20
2018-12-27T03:26:56.602Z,12.40
2018-12-27T03:29:24.545Z,9.33
2018-12-27T03:31:52.843Z,11.03
2018-12-27T03:34:39.981Z,11.33
2018-12-27T03:37:08.552Z,11.33
2018-12-27T03:39:36.612Z,10.37
2018-12-27T03:42:23.945Z,10.43
2018-12-27T03:44:51.843Z,9.23
2018-12-27T03:47:19.822Z,9.30
2018-12-27T03:49:47.799Z,11.20
2018-12-27T03:52:15.739Z,8.00
2018-12-27T03:54:43.422Z,8.33
2018-12-27T03:57:11.086Z,11.30
2018-12-27T03:59:39.383Z,8.27
2018-12-27T04:02:07.690Z,8.30
2018-12-27T04:04:35.662Z,9.30
2018-12-27T04:07:03.638Z,8.60
2018-12-27T04:09:31.613Z,9.90
2018-12-27T04:11:59.270Z,8.67
2018-12-27T04:14:26.930Z,8.03
2018-12-27T04:19:28.390Z,8.97
2018-12-27T04:21:56.898Z,8.33
2018-12-27T04:24:24.781Z,7.70
2018-12-27T04:26:52.774Z,9.63
2018-12-27T04:29:21.049Z,8.53
2018-12-27T04:37:37.786Z,8.63
2018-12-27T04:40:05.817Z,6.93
2018-12-27T04:42:34.495Z,7.97
2018-12-27T04:45:02.546Z,7.40
2018-12-27T04:47:30.746Z,8.13
2018-12-27T04:50:17.514Z,7.37
2018-12-27T04:52:45.817Z,8.43
2018-12-27T04:55:13.863Z,7.70
2018-12-27T04:57:41.814Z,8.67
2018-12-27T05:00:10.039Z,6.90
2018-12-27T05:02:37.941Z,8.67
2018-12-27T05:05:05.881Z,10.30
2018-12-27T05:07:52.652Z,7.67
2018-12-27T05:10:20.649Z,7.33
2018-12-27T05:12:48.825Z,7.97
2018-12-27T05:15:16.743Z,8.27
2018-12-27T05:20:19.267Z,7.47
2018-12-27T05:22:47.566Z,8.33
2018-12-27T05:25:15.214Z,8.70
2018-12-27T05:27:43.434Z,8.00
2018-12-27T05:30:11.422Z,8.17
2018-12-27T05:32:39.433Z,8.90
2018-12-27T05:35:07.778Z,7.57
2018-12-27T05:37:35.995Z,6.23
2018-12-27T05:40:04.267Z,8.03
2018-12-27T05:42:32.651Z,8.67
2018-12-27T05:45:00.305Z,10.00
2018-12-27T05:47:28.317Z,7.43
2018-12-27T05:49:56.199Z,6.27
2018-12-27T05:52:24.114Z,7.53
2018-12-27T05:54:52.185Z,6.90
2018-12-27T05:57:38.954Z,6.33
2018-12-27T06:00:06.946Z,11.53
2018-12-27T06:02:34.901Z,9.33
2018-12-27T06:05:03.244Z,7.80
2018-12-27T06:07:31.209Z,8.07
2018-12-27T06:09:59.217Z,10.00
2018-12-27T06:12:27.238Z,6.57
2018-12-27T06:14:55.508Z,7.73
2018-12-27T06:17:23.173Z,8.37
2018-12-27T06:19:51.197Z,9.37
2018-12-27T06:22:18.856Z,8.37
2018-12-27T06:24:47.168Z,6.90
2018-12-27T06:27:15.147Z,7.80
2018-12-27T06:29:43.830Z,8.47
2018-12-27T06:32:11.798Z,8.20
2018-12-27T06:37:12.901Z,7.93
2018-12-27T06:39:40.868Z,7.70
2018-12-27T06:42:09.103Z,9.07
2018-12-27T06:44:37.353Z,7.40
2018-12-27T06:47:05.068Z,8.70
2018-12-27T06:49:33.099Z,8.50
2018-12-27T06:52:01.053Z,9.03
2018-12-27T06:54:29.004Z,8.73
2018-12-27T06:56:57.326Z,7.27
2018-12-27T07:02:12.408Z,7.00
2018-12-27T07:04:40.684Z,7.30
2018-12-27T07:07:08.965Z,7.10
2018-12-27T07:12:24.567Z,6.80
2018-12-27T07:14:52.218Z,8.00
2018-12-27T07:17:19.885Z,8.37
2018-12-27T07:19:47.601Z,7.37
2018-12-27T07:22:15.570Z,7.57
2018-12-27T07:24:43.534Z,6.73
2018-12-27T07:27:11.179Z,7.73
2018-12-27T07:29:39.194Z,8.37
2018-12-27T07:32:07.519Z,9.90
2018-12-27T07:37:08.755Z,6.67
2018-12-27T07:39:36.933Z,6.60
2018-12-27T07:42:04.823Z,6.33
2018-12-27T07:44:32.844Z,8.90
2018-12-27T07:47:00.494Z,7.50
2018-12-27T07:49:28.714Z,8.20
2018-12-27T07:51:56.605Z,8.33
2018-12-27T07:56:57.950Z,7.60
2018-12-27T07:59:25.922Z,7.13
2018-12-27T08:01:53.913Z,6.67
2018-12-27T08:04:21.949Z,8.20
2018-12-27T08:06:49.597Z,8.63
2018-12-27T08:09:17.546Z,7.97
2018-12-27T08:11:45.552Z,7.20
2018-12-27T08:14:13.664Z,8.10
2018-12-27T08:16:41.321Z,7.10
2018-12-27T08:19:09.313Z,6.80
2018-12-27T08:21:37.879Z,8.33
2018-12-27T08:24:24.633Z,7.40
2018-12-27T08:26:52.589Z,7.07
2018-12-27T08:29:20.611Z,7.70
2018-12-27T08:31:48.273Z,9.13
2018-12-27T08:34:16.212Z,7.97
2018-12-27T08:36:44.243Z,7.90
2018-12-27T08:39:11.880Z,8.20
2018-12-27T08:41:39.553Z,8.87
2018-12-27T08:44:07.214Z,8.83
2018-12-27T08:46:34.852Z,9.00
2018-12-27T08:51:36.813Z,10.37
2018-12-27T08:54:04.469Z,9.80
2018-12-27T08:56:51.331Z,10.10
2018-12-27T08:59:19.565Z,9.57
2018-12-27T09:01:47.602Z,10.20
2018-12-27T09:04:15.319Z,9.30
2018-12-27T09:07:02.314Z,8.80
2018-12-27T09:09:30.341Z,11.23
2018-12-27T09:11:57.990Z,11.90
2018-12-27T09:14:25.657Z,11.50
2018-12-27T09:16:53.577Z,11.43
2018-12-27T09:19:22.065Z,12.10
2018-12-27T09:21:50.742Z,11.60
2018-12-27T09:24:18.762Z,13.70
2018-12-27T09:26:46.702Z,12.70
2018-12-27T09:29:33.473Z,11.90
2018-12-27T09:32:01.765Z,13.30
2018-12-27T09:34:30.057Z,14.47
2018-12-27T09:36:58.359Z,13.40
2018-12-27T09:39:26.079Z,13.80
2018-12-27T09:41:54.808Z,11.80
2018-12-27T09:44:23.047Z,13.17
2018-12-27T09:46:51.075Z,9.80
2018-12-27T09:49:18.729Z,10.07
2018-12-27T09:54:21.277Z,8.57
2018-12-27T09:56:49.297Z,10.87
2018-12-27T09:59:17.258Z,10.40
2018-12-27T10:01:45.218Z,10.37
2018-12-27T10:04:13.445Z,11.80
2018-12-27T10:06:41.634Z,11.00
2018-12-27T10:09:09.969Z,17.20
2018-12-27T10:11:37.638Z,17.97
2018-12-27T10:16:52.771Z,20.60
2018-12-27T10:22:08.021Z,11.00
2018-12-27T10:24:55.065Z,10.60
2018-12-27T10:27:23.413Z,11.07
2018-12-27T10:30:10.462Z,8.63
2018-12-27T10:32:57.851Z,14.20
2018-12-27T10:35:25.508Z,9.37
2018-12-27T10:37:53.457Z,10.00
2018-12-27T10:40:21.412Z,7.20
2018-12-27T10:42:49.724Z,7.90
2018-12-27T10:47:51.641Z,9.37
2018-12-27T10:50:19.556Z,8.13
2018-12-27T10:52:47.476Z,10.43
2018-12-27T10:55:15.145Z,9.60
2018-12-27T10:57:43.078Z,9.53
2018-12-27T11:02:45.899Z,9.90
2018-12-27T11:05:13.578Z,10.17
2018-12-27T11:07:41.518Z,11.50
2018-12-27T11:13:02.425Z,8.70
2018-12-27T11:15:30.438Z,7.63
2018-12-27T11:17:58.089Z,10.53
2018-12-27T11:23:13.258Z,8.60
2018-12-27T11:25:41.205Z,11.83
2018-12-27T11:28:09.118Z,10.87
2018-12-27T11:30:55.873Z,11.40
2018-12-27T11:36:17.240Z,8.50
2018-12-27T11:38:41.301Z,9.40
2018-12-27T11:41:09.208Z,10.43
2018-12-27T11:43:36.888Z,8.90
2018-12-27T11:46:23.637Z,8.93
2018-12-27T11:48:51.297Z,13.27
2018-12-27T11:54:06.741Z,8.13
2018-12-27T11:56:34.774Z,9.20
2018-12-27T11:59:21.842Z,6.57
2018-12-27T12:01:50.727Z,8.13
2018-12-27T12:04:18.994Z,8.87
2018-12-27T12:06:46.927Z,9.67
2018-12-27T12:09:14.896Z,9.03
2018-12-27T12:11:43.113Z,10.33
2018-12-27T12:14:11.489Z,7.20
2018-12-27T12:16:39.666Z,8.63
2018-12-27T12:19:07.626Z,8.17
2018-12-27T12:21:35.799Z,8.70
2018-12-27T12:24:03.458Z,8.40
2018-12-27T12:26:31.390Z,8.33
2018-12-27T12:28:59.357Z,8.83
2018-12-27T12:31:27.594Z,7.70
2018-12-27T12:33:55.859Z,9.83
2018-12-27T12:36:23.882Z,10.43
2018-12-27T12:38:52.107Z,8.33
2018-12-27T12:41:20.137Z,7.33
2018-12-27T12:46:35.198Z,8.40
2018-12-27T12:49:03.268Z,8.70
2018-12-27T12:51:31.265Z,6.90
2018-12-27T12:53:59.153Z,7.63
2018-12-27T12:56:27.150Z,7.70
2018-12-27T12:58:55.080Z,7.80
2018-12-27T13:01:23.391Z,7.23
2018-12-27T13:03:51.367Z,7.40
2018-12-27T13:06:19.370Z,6.53
2018-12-27T13:08:47.377Z,6.60
2018-12-27T13:11:15.565Z,7.30
2018-12-27T13:13:43.841Z,7.23
2018-12-27T13:16:11.585Z,6.60
2018-12-27T13:21:13.739Z,6.37
2018-12-27T13:23:41.683Z,7.67
2018-12-27T13:26:09.939Z,6.20
2018-12-27T13:28:38.226Z,7.20
2018-12-27T13:31:05.962Z,10.37
2018-12-27T13:33:33.626Z,9.10
2018-12-27T13:36:01.559Z,6.77
2018-12-27T13:38:29.514Z,9.00
2018-12-27T13:40:57.164Z,7.67
2018-12-27T13:43:25.408Z,7.17
2018-12-27T13:45:53.065Z,8.27
2018-12-27T13:48:39.829Z,6.40
2018-12-27T13:51:07.543Z,5.93
2018-12-27T13:53:35.189Z,6.07
2018-12-27T13:56:03.514Z,6.90
2018-12-27T13:58:31.762Z,7.33
2018-12-27T14:00:59.945Z,8.93
2018-12-27T14:03:47.054Z,9.70
2018-12-27T14:06:15.077Z,12.10
2018-12-27T14:08:43.345Z,10.40
2018-12-27T14:11:11.014Z,8.97
2018-12-27T14:13:38.993Z,7.47
2018-12-27T14:16:07.274Z,9.60
2018-12-27T14:18:35.512Z,7.83
2018-12-27T14:21:04.171Z,10.20
2018-12-27T14:23:32.501Z,8.00
2018-12-27T14:26:00.829Z,6.63
2018-12-27T14:28:28.747Z,7.90
2018-12-27T14:30:57.279Z,7.40
2018-12-27T14:33:25.207Z,7.63
2018-12-27T14:35:52.863Z,7.20
2018-12-27T14:38:21.086Z,6.33
2018-12-27T14:40:48.990Z,8.53
2018-12-27T14:43:17.295Z,7.20
2018-12-27T14:45:44.941Z,6.77
2018-12-27T14:48:12.934Z,6.43
2018-12-27T14:50:41.438Z,7.77
2018-12-27T14:53:10.121Z,6.00
2018-12-27T14:55:37.799Z,6.10
2018-12-27T14:58:06.479Z,5.63
2018-12-27T15:00:34.641Z,8.10
2018-12-27T15:03:02.581Z,8.40
2018-12-27T15:05:30.457Z,8.87
2018-12-27T15:10:32.141Z,7.10
2018-12-27T15:13:00.166Z,9.00
2018-12-27T15:15:28.069Z,6.70
2018-12-27T15:17:55.731Z,5.23
2018-12-27T15:20:23.726Z,4.73
2018-12-27T15:22:51.915Z,5.93
2018-12-27T15:25:20.425Z,6.20
2018-12-27T15:27:48.433Z,5.57
2018-12-27T15:30:16.727Z,5.53
2018-12-27T15:32:44.382Z,5.07
2018-12-27T15:35:12.306Z,4.93
2018-12-27T15:37:40.230Z,5.10
2018-12-27T15:40:08.197Z,5.40
2018-12-27T15:42:36.097Z,5.70
2018-12-27T15:45:03.957Z,5.47
2018-12-27T15:47:31.904Z,4.77
2018-12-27T15:49:59.556Z,4.63
2018-12-27T15:52:27.481Z,5.17
2018-12-27T15:54:55.464Z,5.17
2018-12-27T15:57:42.518Z,6.60
2018-12-27T16:00:10.497Z,5.90
2018-12-27T16:02:38.496Z,4.50
2018-12-27T16:05:06.155Z,4.73
2018-12-27T16:07:34.082Z,4.70
2018-12-27T16:10:01.754Z,6.30
2018-12-27T16:15:16.653Z,4.40
2018-12-27T16:17:44.648Z,4.70
2018-12-27T16:20:12.669Z,4.50
2018-12-27T16:22:40.946Z,4.30
2018-12-27T16:25:08.884Z,4.80
2018-12-27T16:27:36.837Z,4.97
2018-12-27T16:32:52.278Z,4.60
2018-12-27T16:35:20.208Z,4.50
2018-12-27T16:37:48.180Z,4.60
2018-12-27T16:40:16.513Z,4.93
2018-12-27T16:45:17.863Z,6.73
2018-12-27T16:48:04.628Z,4.93
2018-12-27T16:50:32.285Z,4.50
2018-12-27T16:52:59.950Z,4.43
2018-12-27T16:55:27.621Z,5.70
2018-12-27T16:57:55.282Z,5.43
2018-12-27T17:00:42.566Z,4.90
2018-12-27T17:03:10.917Z,4.83
2018-12-27T17:05:38.875Z,5.27
2018-12-27T17:08:06.638Z,7.87
2018-12-27T17:13:22.326Z,4.53
2018-12-27T17:15:49.968Z,5.80
2018-12-27T17:20:50.853Z,5.83
2018-12-27T17:23:18.742Z,7.20
2018-12-27T17:25:47.014Z,5.80
2018-12-27T17:28:15.345Z,6.37
2018-12-27T17:30:43.566Z,7.07
2018-12-27T17:33:12.050Z,7.40
2018-12-27T17:35:39.725Z,6.53
2018-12-27T17:38:07.373Z,6.47
2018-12-27T17:40:54.163Z,6.70
2018-12-27T17:43:21.809Z,6.80
2018-12-27T17:48:23.404Z,5.83
2018-12-27T17:50:51.591Z,7.60
2018-12-27T17:53:19.308Z,7.07
2018-12-27T17:55:46.973Z,9.40
2018-12-27T17:58:14.625Z,10.40
2018-12-27T18:00:42.582Z,11.07
2018-12-27T18:03:10.826Z,9.67
2018-12-27T18:05:38.742Z,13.70
2018-12-27T18:08:25.515Z,11.90
2018-12-27T18:10:53.534Z,11.23
2018-12-27T18:13:22.048Z,10.97
2018-12-27T18:15:49.781Z,12.30
2018-12-27T18:18:18.608Z,12.87
2018-12-27T18:20:46.355Z,23.57
2018-12-27T18:23:14.403Z,21.57
2018-12-27T18:25:42.367Z,18.63
2018-12-27T18:28:10.338Z,17.37
2018-12-27T18:30:38.009Z,18.90
2018-12-27T18:33:06.319Z,11.47
2018-12-27T18:35:33.978Z,11.90
2018-12-27T18:38:01.857Z,10.47
2018-12-27T18:40:29.524Z,11.97
2018-12-27T18:42:57.187Z,9.57
2018-12-27T18:45:25.418Z,12.00
2018-12-27T18:47:53.374Z,8.23
2018-12-27T18:50:21.654Z,8.80
2018-12-27T18:52:49.667Z,9.90
2018-12-27T18:55:20.244Z,10.13
2018-12-27T18:57:47.268Z,10.30
2018-12-27T19:00:15.262Z,9.23
2018-12-27T19:05:30.525Z,10.60
2018-12-27T19:11:04.467Z,10.33
2018-12-27T19:13:32.165Z,11.77
2018-12-27T19:16:01.591Z,8.93
2018-12-27T19:18:48.576Z,9.70
2018-12-27T19:21:35.841Z,8.53
2018-12-27T19:24:03.501Z,12.33
2018-12-27T19:26:32.079Z,9.47
2018-12-27T19:28:59.731Z,11.73
2018-12-27T19:31:28.294Z,8.13
2018-12-27T19:33:56.774Z,9.60
2018-12-27T19:36:24.419Z,10.27
2018-12-27T19:38:52.347Z,9.17
2018-12-27T19:41:20.066Z,10.73
2018-12-27T19:43:48.261Z,11.50
2018-12-27T19:46:16.857Z,10.87
2018-12-27T19:48:44.582Z,9.67
2018-12-27T19:51:12.789Z,9.93
2018-12-27T19:53:40.448Z,10.33
2018-12-27T19:56:08.431Z,11.90
2018-12-27T19:58:36.197Z,12.70
2018-12-27T20:01:04.304Z,10.97
2018-12-27T20:03:32.244Z,12.13
2018-12-27T20:06:00.233Z,9.90
2018-12-27T20:11:01.770Z,11.97
2018-12-27T20:13:29.692Z,11.70
2018-12-27T20:15:57.918Z,13.37
2018-12-27T20:18:26.105Z,13.10
2018-12-27T20:20:54.462Z,14.30
2018-12-27T20:23:22.384Z,13.60
2018-12-27T20:25:50.543Z,18.20
2018-12-27T20:28:18.511Z,16.97
2018-12-27T20:30:46.541Z,18.83
2018-12-27T20:33:33.574Z,20.17
2018-12-27T20:36:01.310Z,19.87
2018-12-27T20:38:29.253Z,19.77
2018-12-27T20:40:56.924Z,15.47
2018-12-27T20:43:24.890Z,14.77
2018-12-27T20:45:52.810Z,16.13
2018-12-27T20:48:21.066Z,17.50
2018-12-27T20:53:23.317Z,25.30
2018-12-27T20:55:51.540Z,21.47
2018-12-27T20:58:19.475Z,19.93
2018-12-27T21:00:47.151Z,19.30
2018-12-27T21:03:15.089Z,20.70
2018-12-27T21:05:43.414Z,16.50
2018-12-27T21:08:14.186Z,16.30
2018-12-27T21:10:41.601Z,13.63
2018-12-27T21:15:44.093Z,17.07
2018-12-27T21:18:12.886Z,15.20
2018-12-27T21:20:40.550Z,16.60
2018-12-27T21:25:42.987Z,23.43
2018-12-27T21:28:10.958Z,18.93
2018-12-27T21:30:58.018Z,23.60
2018-12-27T21:36:00.916Z,27.20
2018-12-27T21:41:02.032Z,19.30
2018-12-27T21:43:29.710Z,18.60
2018-12-27T21:48:47.013Z,17.03
2018-12-27T21:51:33.789Z,15.20
2018-12-27T21:54:01.824Z,14.93
2018-12-27T21:56:30.006Z,15.17
2018-12-27T21:58:57.994Z,13.43
2018-12-27T22:01:25.950Z,14.20
2018-12-27T22:03:54.162Z,15.80
2018-12-27T22:06:22.195Z,13.73
2018-12-27T22:08:49.857Z,15.70
2018-12-27T22:11:17.543Z,15.37
2018-12-27T22:13:45.198Z,14.00
2018-12-27T22:16:13.133Z,14.33
2018-12-27T22:18:41.111Z,12.87
2018-12-27T22:21:09.036Z,15.03
2018-12-27T22:23:36.953Z,14.50
2018-12-27T22:26:04.630Z,13.03
2018-12-27T22:28:51.681Z,14.97
2018-12-27T22:31:19.629Z,16.10
2018-12-27T22:33:47.282Z,13.80
2018-12-27T22:36:15.228Z,11.93
2018-12-27T22:38:43.543Z,16.47
2018-12-27T22:41:11.560Z,19.00
2018-12-27T22:46:26.985Z,17.00
2018-12-27T22:51:42.568Z,16.20
2018-12-27T22:54:10.744Z,13.10
2018-12-27T22:56:39.268Z,12.93
2018-12-27T22:59:07.604Z,12.93
2018-12-27T23:04:23.097Z,12.63
2018-12-27T23:06:51.050Z,15.07
2018-12-27T23:09:19.317Z,12.63
2018-12-27T23:11:47.867Z,12.60
2018-12-27T23:14:35.253Z,13.07
2018-12-27T23:17:03.566Z,14.70
2018-12-27T23:19:31.530Z,11.40
2018-12-27T23:21:59.509Z,11.43
2018-12-27T23:24:27.877Z,15.00
2018-12-27T23:26:55.906Z,15.70
2018-12-27T23:29:23.577Z,13.03
2018-12-27T23:34:38.437Z,12.33
2018-12-27T23:37:06.683Z,12.40
2018-12-27T23:39:34.700Z,12.50
2018-12-27T23:44:49.509Z,13.53
2018-12-27T23:47:17.168Z,12.73
2018-12-27T23:49:44.818Z,11.87
2018-12-27T23:52:13.107Z,13.20
2018-12-27T23:54:41.661Z,13.30
2018-12-27T23:57:09.865Z,12.00
2018-12-27T23:59:37.519Z,12.57
